Gulf Islands National Seasho, Mississippi
Current Conditions -  °F | °C
As of 8:58 AM on Saturday 01 Nov 2014 (Local Time) from KBIX Reporting Station
Clear Clear  
Wind Chill: 36°   Ceiling: Unl
Heat Index: 44°   Visibility: 10mi
Dew Point: 26°   Wind: 16mph
Humidity: 49%   Direction: 360°N
Pressure: 30.32"   Gusts: 21mph
Location:  30.418°N, 88.7558°W
Report Text: KBIX 011358Z AUTO 36014G18KT 10SM CLR 07/M04 A3032 RMK AO2 SLP270 T00651036
Loading
Personal Weather Stations






























Interactive Weather Map
Tropical Storm Tracking
New forecast layout! Learn more

10-Day Weather Forecast

Advertisements
Track Severe Weather on mobile